Powderville, MT (59345)

1:02 PM MST on February 14, 2016 (GMT -0700)
Wiley | | Change Station
CLOSE
Current Station
Airport
Location: Miles City,
Elevation: 2628 ft
Nearby Weather Stations

Elev 2628 ft 46.43 °N, 105.88 °W | Updated 9 minutes ago

Overcast
Overcast
46 °F
Feels Like 39 °F
N
18
Wind Variable Wind from WNW
Gusts 26 mph

Today
High -- | Low -- °F
--% Chance of Precip.
Yesterday
High -- | Low -- °F
Precip. -- in
Pressure 29.80 in
Visibility 10.0 miles
Clouds Few 4200 ft
Mostly Cloudy 5000 ft
Mostly Cloudy 12000 ft
Windchill 39 °F
Dew Point 31 °F
Humidity 56%
Rainfall 0.00 in
Snow Depth Not available.
7:05 AM 5:25 PM
Waxing Crescent, 45% visible
METAR KMLS 141953Z AUTO 30016G23KT 10SM FEW042 BKN050 BKN120 08/M01 A2976 RMK AO2 SLP091 T00781006
Pressure 29.80 in
Visibility 10.0 miles
Clouds Few 4200 ft
Mostly Cloudy 5000 ft
Mostly Cloudy 12000 ft
Windchill 39 °F
Dew Point 31 °F
Humidity 56%
Rainfall 0.00 in
Snow Depth Not available.
7:05 AM 5:25 PM
Waxing Crescent, 45% visible
METAR KMLS 141953Z AUTO 30016G23KT 10SM FEW042 BKN050 BKN120 08/M01 A2976 RMK AO2 SLP091 T00781006

10-Day Weather Forecast

Almanac

Astronomy

Feb. 14, 2016 Rise Set
Actual Time
Civil Twilight
Nautical Twilight
Astronomical Twilight
Moon
Length of Visible Light
Length of Day
Tomorrow will be .
, % of the Moon is Illuminated

Today's Extremes

State Highs State Lows

Community

WunderPhotos

Upload Photos

1,892,880 photos uploaded!

WunderBlog® & News

Nearby

Air Quality

  Air Quality AQ Index Pollutant
Not available.

Snow Depth

Station Depth Elevation

Earthquake Activity

City Distance Mag. Time & Date
Minimum magnitude displayed is 2.5.

Coastal Water Temperatures

Place Temperature

Stations

Nearby Weather Stations

Station Location Temp. Windchill Dew Point Humidity Wind Precip. Elev Updated Type
                   

Watches & Warnings

There are currently no watches in effect.